sensor_id;sensor_type;location;lat;lon;timestamp;pressure;altitude;pressure_sealevel;temperature;humidity
54648;BME280;40543;53.584;9.858;2024-03-17T00:02:01;118145.84;;;-144.59;100.00
54648;BME280;40543;53.584;9.858;2024-03-17T00:04:26;118145.84;;;-144.59;100.00
54648;BME280;40543;53.584;9.858;2024-03-17T00:06:52;118145.84;;;-144.59;100.00
54648;BME280;40543;53.584;9.858;2024-03-17T00:09:18;118145.84;;;-144.59;100.00
54648;BME280;40543;53.584;9.858;2024-03-17T00:11:44;118145.84;;;-144.59;100.00
54648;BME280;40543;53.584;9.858;2024-03-17T00:14:10;118145.84;;;-144.59;100.00
54648;BME280;40543;53.584;9.858;2024-03-17T00:16:36;118145.84;;;-144.59;100.00
54648;BME280;40543;53.584;9.858;2024-03-17T00:19:02;118145.84;;;-144.59;100.00
54648;BME280;40543;53.584;9.858;2024-03-17T00:21:27;118145.84;;;-144.59;100.00
54648;BME280;40543;53.584;9.858;2024-03-17T00:23:53;118145.84;;;-144.59;100.00
54648;BME280;40543;53.584;9.858;2024-03-17T00:26:18;118145.84;;;-144.59;100.00
54648;BME280;40543;53.584;9.858;2024-03-17T00:28:47;118145.84;;;-144.59;100.00
54648;BME280;40543;53.584;9.858;2024-03-17T00:31:16;118145.84;;;-144.59;100.00
54648;BME280;40543;53.584;9.858;2024-03-17T00:33:41;118145.84;;;-144.59;100.00
54648;BME280;40543;53.584;9.858;2024-03-17T00:36:06;118145.84;;;-144.59;100.00
54648;BME280;40543;53.584;9.858;2024-03-17T00:38:32;118145.84;;;-144.59;100.00
54648;BME280;40543;53.584;9.858;2024-03-17T00:40:58;118145.84;;;-144.59;100.00
54648;BME280;40543;53.584;9.858;2024-03-17T00:43:23;118145.84;;;-144.59;100.00
54648;BME280;40543;53.584;9.858;2024-03-17T00:45:52;118145.84;;;-144.59;100.00
54648;BME280;40543;53.584;9.858;2024-03-17T00:48:18;118145.84;;;-144.59;100.00
54648;BME280;40543;53.584;9.858;2024-03-17T00:50:44;118145.84;;;-144.59;100.00
54648;BME280;40543;53.584;9.858;2024-03-17T00:53:10;118145.84;;;-144.59;100.00
54648;BME280;40543;53.584;9.858;2024-03-17T00:55:35;118145.84;;;-144.59;100.00
54648;BME280;40543;53.584;9.858;2024-03-17T00:58:01;118145.84;;;-144.59;100.00
54648;BME280;40543;53.584;9.858;2024-03-17T01:00:26;118145.84;;;-144.59;100.00
54648;BME280;40543;53.584;9.858;2024-03-17T01:02:52;118145.84;;;-144.59;100.00
54648;BME280;40543;53.584;9.858;2024-03-17T01:05:17;118145.84;;;-144.59;100.00
54648;BME280;40543;53.584;9.858;2024-03-17T01:07:42;118145.84;;;-144.59;100.00
54648;BME280;40543;53.584;9.858;2024-03-17T01:10:08;118145.84;;;-144.59;100.00
54648;BME280;40543;53.584;9.858;2024-03-17T01:12:34;118145.84;;;-144.59;100.00
54648;BME280;40543;53.584;9.858;2024-03-17T01:15:02;118145.84;;;-144.59;100.00
54648;BME280;40543;53.584;9.858;2024-03-17T01:17:27;118145.84;;;-144.59;100.00
54648;BME280;40543;53.584;9.858;2024-03-17T01:19:53;118145.84;;;-144.59;100.00
54648;BME280;40543;53.584;9.858;2024-03-17T01:22:18;118145.84;;;-144.59;100.00
54648;BME280;40543;53.584;9.858;2024-03-17T01:24:43;118145.84;;;-144.59;100.00
54648;BME280;40543;53.584;9.858;2024-03-17T01:27:11;118145.84;;;-144.59;100.00
54648;BME280;40543;53.584;9.858;2024-03-17T01:29:39;118145.84;;;-144.59;100.00
54648;BME280;40543;53.584;9.858;2024-03-17T01:32:05;118145.84;;;-144.59;100.00
54648;BME280;40543;53.584;9.858;2024-03-17T01:34:31;118145.84;;;-144.59;100.00
54648;BME280;40543;53.584;9.858;2024-03-17T01:36:56;118145.84;;;-144.59;100.00
54648;BME280;40543;53.584;9.858;2024-03-17T01:39:21;118145.84;;;-144.59;100.00
54648;BME280;40543;53.584;9.858;2024-03-17T01:41:47;118145.84;;;-144.59;100.00
54648;BME280;40543;53.584;9.858;2024-03-17T01:44:23;118145.84;;;-144.59;100.00
54648;BME280;40543;53.584;9.858;2024-03-17T01:46:50;118145.84;;;-144.59;100.00
54648;BME280;40543;53.584;9.858;2024-03-17T01:49:16;118145.84;;;-144.59;100.00
54648;BME280;40543;53.584;9.858;2024-03-17T01:51:42;118145.84;;;-144.59;100.00
54648;BME280;40543;53.584;9.858;2024-03-17T01:54:08;118145.84;;;-144.59;100.00
54648;BME280;40543;53.584;9.858;2024-03-17T01:56:33;118145.84;;;-144.59;100.00
54648;BME280;40543;53.584;9.858;2024-03-17T01:59:00;118145.84;;;-144.59;100.00
54648;BME280;40543;53.584;9.858;2024-03-17T02:01:26;118145.84;;;-144.59;100.00
54648;BME280;40543;53.584;9.858;2024-03-17T02:03:52;118145.84;;;-144.59;100.00
54648;BME280;40543;53.584;9.858;2024-03-17T02:06:17;118145.84;;;-144.59;100.00
54648;BME280;40543;53.584;9.858;2024-03-17T02:08:47;118145.84;;;-144.59;100.00
54648;BME280;40543;53.584;9.858;2024-03-17T02:13:52;118145.84;;;-144.59;100.00
54648;BME280;40543;53.584;9.858;2024-03-17T02:16:19;118145.84;;;-144.59;100.00
54648;BME280;40543;53.584;9.858;2024-03-17T02:18:45;118145.84;;;-144.59;100.00
54648;BME280;40543;53.584;9.858;2024-03-17T02:21:14;118145.84;;;-144.59;100.00
54648;BME280;40543;53.584;9.858;2024-03-17T02:23:42;118145.84;;;-144.59;100.00
54648;BME280;40543;53.584;9.858;2024-03-17T02:26:08;118145.84;;;-144.59;100.00
54648;BME280;40543;53.584;9.858;2024-03-17T02:28:44;118145.84;;;-144.59;100.00
54648;BME280;40543;53.584;9.858;2024-03-17T02:31:11;118145.84;;;-144.59;100.00
54648;BME280;40543;53.584;9.858;2024-03-17T02:33:37;118145.84;;;-144.59;100.00
54648;BME280;40543;53.584;9.858;2024-03-17T02:36:04;118145.84;;;-144.59;100.00
54648;BME280;40543;53.584;9.858;2024-03-17T02:38:30;118145.84;;;-144.59;100.00
54648;BME280;40543;53.584;9.858;2024-03-17T02:41:15;118145.84;;;-144.59;100.00
54648;BME280;40543;53.584;9.858;2024-03-17T02:43:42;118145.84;;;-144.59;100.00
54648;BME280;40543;53.584;9.858;2024-03-17T02:46:13;118145.84;;;-144.59;100.00
54648;BME280;40543;53.584;9.858;2024-03-17T02:48:42;118145.84;;;-144.59;100.00
54648;BME280;40543;53.584;9.858;2024-03-17T02:51:12;118145.84;;;-144.59;100.00
54648;BME280;40543;53.584;9.858;2024-03-17T02:53:40;118145.84;;;-144.59;100.00
54648;BME280;40543;53.584;9.858;2024-03-17T02:56:05;118145.84;;;-144.59;100.00
54648;BME280;40543;53.584;9.858;2024-03-17T02:58:34;118145.84;;;-144.59;100.00
54648;BME280;40543;53.584;9.858;2024-03-17T03:00:59;118145.84;;;-144.59;100.00
54648;BME280;40543;53.584;9.858;2024-03-17T03:03:24;118145.84;;;-144.59;100.00
54648;BME280;40543;53.584;9.858;2024-03-17T03:05:50;118145.84;;;-144.59;100.00
54648;BME280;40543;53.584;9.858;2024-03-17T03:08:15;118145.84;;;-144.59;100.00
54648;BME280;40543;53.584;9.858;2024-03-17T03:10:46;118145.84;;;-144.59;100.00
54648;BME280;40543;53.584;9.858;2024-03-17T03:13:11;118145.84;;;-144.59;100.00
54648;BME280;40543;53.584;9.858;2024-03-17T03:15:36;118145.84;;;-144.59;100.00
54648;BME280;40543;53.584;9.858;2024-03-17T03:18:02;118145.84;;;-144.59;100.00
54648;BME280;40543;53.584;9.858;2024-03-17T03:20:28;118145.84;;;-144.59;100.00
54648;BME280;40543;53.584;9.858;2024-03-17T03:22:53;118145.84;;;-144.59;100.00
54648;BME280;40543;53.584;9.858;2024-03-17T03:25:19;118145.84;;;-144.59;100.00
54648;BME280;40543;53.584;9.858;2024-03-17T03:27:44;118145.84;;;-144.59;100.00
54648;BME280;40543;53.584;9.858;2024-03-17T03:30:10;118145.84;;;-144.59;100.00
54648;BME280;40543;53.584;9.858;2024-03-17T03:32:35;118145.84;;;-144.59;100.00
54648;BME280;40543;53.584;9.858;2024-03-17T03:35:04;118145.84;;;-144.59;100.00
54648;BME280;40543;53.584;9.858;2024-03-17T03:37:30;118145.84;;;-144.59;100.00
54648;BME280;40543;53.584;9.858;2024-03-17T03:39:55;118145.84;;;-144.59;100.00
54648;BME280;40543;53.584;9.858;2024-03-17T03:42:21;118145.84;;;-144.59;100.00
54648;BME280;40543;53.584;9.858;2024-03-17T03:44:46;118145.84;;;-144.59;100.00
54648;BME280;40543;53.584;9.858;2024-03-17T03:47:14;118145.84;;;-144.59;100.00
54648;BME280;40543;53.584;9.858;2024-03-17T03:49:39;118145.84;;;-144.59;100.00
54648;BME280;40543;53.584;9.858;2024-03-17T03:52:04;118145.84;;;-144.59;100.00
54648;BME280;40543;53.584;9.858;2024-03-17T03:54:30;118145.84;;;-144.59;100.00
54648;BME280;40543;53.584;9.858;2024-03-17T03:56:55;118145.84;;;-144.59;100.00
54648;BME280;40543;53.584;9.858;2024-03-17T03:59:21;118145.84;;;-144.59;100.00
54648;BME280;40543;53.584;9.858;2024-03-17T04:01:47;118145.84;;;-144.59;100.00
54648;BME280;40543;53.584;9.858;2024-03-17T04:04:14;118145.84;;;-144.59;100.00
54648;BME280;40543;53.584;9.858;2024-03-17T04:06:40;118145.84;;;-144.59;100.00
54648;BME280;40543;53.584;9.858;2024-03-17T04:09:05;118145.84;;;-144.59;100.00
54648;BME280;40543;53.584;9.858;2024-03-17T04:11:33;118145.84;;;-144.59;100.00
54648;BME280;40543;53.584;9.858;2024-03-17T04:13:59;118145.84;;;-144.59;100.00
54648;BME280;40543;53.584;9.858;2024-03-17T04:16:25;118145.84;;;-144.59;100.00
54648;BME280;40543;53.584;9.858;2024-03-17T04:18:51;118145.84;;;-144.59;100.00
54648;BME280;40543;53.584;9.858;2024-03-17T04:21:16;118145.84;;;-144.59;100.00
54648;BME280;40543;53.584;9.858;2024-03-17T04:23:41;118145.84;;;-144.59;100.00
54648;BME280;40543;53.584;9.858;2024-03-17T04:26:07;118145.84;;;-144.59;100.00
54648;BME280;40543;53.584;9.858;2024-03-17T04:28:32;118145.84;;;-144.59;100.00
54648;BME280;40543;53.584;9.858;2024-03-17T04:31:09;118145.84;;;-144.59;100.00
54648;BME280;40543;53.584;9.858;2024-03-17T04:33:37;118145.84;;;-144.59;100.00
54648;BME280;40543;53.584;9.858;2024-03-17T04:36:02;118145.84;;;-144.59;100.00
54648;BME280;40543;53.584;9.858;2024-03-17T04:38:28;118145.84;;;-144.59;100.00
54648;BME280;40543;53.584;9.858;2024-03-17T04:40:53;118145.84;;;-144.59;100.00
54648;BME280;40543;53.584;9.858;2024-03-17T04:43:29;118145.84;;;-144.59;100.00
54648;BME280;40543;53.584;9.858;2024-03-17T04:46:06;118145.84;;;-144.59;100.00
54648;BME280;40543;53.584;9.858;2024-03-17T04:48:32;118145.84;;;-144.59;100.00
54648;BME280;40543;53.584;9.858;2024-03-17T04:50:59;118145.84;;;-144.59;100.00
54648;BME280;40543;53.584;9.858;2024-03-17T04:53:25;118145.84;;;-144.59;100.00
54648;BME280;40543;53.584;9.858;2024-03-17T04:56:04;118145.84;;;-144.59;100.00
54648;BME280;40543;53.584;9.858;2024-03-17T04:58:34;118145.84;;;-144.59;100.00
54648;BME280;40543;53.584;9.858;2024-03-17T05:01:08;118145.84;;;-144.59;100.00
54648;BME280;40543;53.584;9.858;2024-03-17T05:03:34;118145.84;;;-144.59;100.00
54648;BME280;40543;53.584;9.858;2024-03-17T05:06:05;118145.84;;;-144.59;100.00
54648;BME280;40543;53.584;9.858;2024-03-17T05:08:32;118145.84;;;-144.59;100.00
54648;BME280;40543;53.584;9.858;2024-03-17T05:11:02;118145.84;;;-144.59;100.00
54648;BME280;40543;53.584;9.858;2024-03-17T05:13:31;118145.84;;;-144.59;100.00
54648;BME280;40543;53.584;9.858;2024-03-17T05:15:57;118145.84;;;-144.59;100.00
54648;BME280;40543;53.584;9.858;2024-03-17T05:18:23;118145.84;;;-144.59;100.00
54648;BME280;40543;53.584;9.858;2024-03-17T05:21:03;118145.84;;;-144.59;100.00
54648;BME280;40543;53.584;9.858;2024-03-17T05:23:34;118145.84;;;-144.59;100.00
54648;BME280;40543;53.584;9.858;2024-03-17T05:26:00;118145.84;;;-144.59;100.00
54648;BME280;40543;53.584;9.858;2024-03-17T05:28:27;118145.84;;;-144.59;100.00
54648;BME280;40543;53.584;9.858;2024-03-17T05:30:53;118145.84;;;-144.59;100.00
54648;BME280;40543;53.584;9.858;2024-03-17T05:33:19;118145.84;;;-144.59;100.00
54648;BME280;40543;53.584;9.858;2024-03-17T05:35:52;118145.84;;;-144.59;100.00
54648;BME280;40543;53.584;9.858;2024-03-17T05:38:22;118145.84;;;-144.59;100.00
54648;BME280;40543;53.584;9.858;2024-03-17T05:41:03;118145.84;;;-144.59;100.00
54648;BME280;40543;53.584;9.858;2024-03-17T05:43:33;118145.84;;;-144.59;100.00
54648;BME280;40543;53.584;9.858;2024-03-17T05:46:01;118145.84;;;-144.59;100.00
54648;BME280;40543;53.584;9.858;2024-03-17T05:48:27;118145.84;;;-144.59;100.00
54648;BME280;40543;53.584;9.858;2024-03-17T05:50:52;118145.84;;;-144.59;100.00
54648;BME280;40543;53.584;9.858;2024-03-17T05:53:19;118145.84;;;-144.59;100.00
54648;BME280;40543;53.584;9.858;2024-03-17T05:55:45;118145.84;;;-144.59;100.00
54648;BME280;40543;53.584;9.858;2024-03-17T05:58:11;118145.84;;;-144.59;100.00
54648;BME280;40543;53.584;9.858;2024-03-17T06:00:37;118145.84;;;-144.59;100.00
54648;BME280;40543;53.584;9.858;2024-03-17T06:03:04;118145.84;;;-144.59;100.00
54648;BME280;40543;53.584;9.858;2024-03-17T06:05:33;118145.84;;;-144.59;100.00
54648;BME280;40543;53.584;9.858;2024-03-17T06:08:00;118145.84;;;-144.59;100.00
54648;BME280;40543;53.584;9.858;2024-03-17T06:10:25;118145.84;;;-144.59;100.00
54648;BME280;40543;53.584;9.858;2024-03-17T06:12:52;118145.84;;;-144.59;100.00
54648;BME280;40543;53.584;9.858;2024-03-17T06:15:17;118145.84;;;-144.59;100.00
54648;BME280;40543;53.584;9.858;2024-03-17T06:17:42;118145.84;;;-144.59;100.00
54648;BME280;40543;53.584;9.858;2024-03-17T06:20:08;118145.84;;;-144.59;100.00
54648;BME280;40543;53.584;9.858;2024-03-17T06:22:38;118145.84;;;-144.59;100.00
54648;BME280;40543;53.584;9.858;2024-03-17T06:25:04;118145.84;;;-144.59;100.00
54648;BME280;40543;53.584;9.858;2024-03-17T06:27:30;118145.84;;;-144.59;100.00
54648;BME280;40543;53.584;9.858;2024-03-17T06:29:56;118145.84;;;-144.59;100.00
54648;BME280;40543;53.584;9.858;2024-03-17T06:32:21;118145.84;;;-144.59;100.00
54648;BME280;40543;53.584;9.858;2024-03-17T06:34:46;118145.84;;;-144.59;100.00
54648;BME280;40543;53.584;9.858;2024-03-17T06:37:12;118145.84;;;-144.59;100.00
54648;BME280;40543;53.584;9.858;2024-03-17T06:39:37;118145.84;;;-144.59;100.00
54648;BME280;40543;53.584;9.858;2024-03-17T06:42:03;118145.84;;;-144.59;100.00
54648;BME280;40543;53.584;9.858;2024-03-17T06:44:28;118145.84;;;-144.59;100.00
54648;BME280;40543;53.584;9.858;2024-03-17T06:46:55;118145.84;;;-144.59;100.00
54648;BME280;40543;53.584;9.858;2024-03-17T06:49:21;118145.84;;;-144.59;100.00
54648;BME280;40543;53.584;9.858;2024-03-17T06:51:46;118145.84;;;-144.59;100.00
54648;BME280;40543;53.584;9.858;2024-03-17T06:54:13;118145.84;;;-144.59;100.00
54648;BME280;40543;53.584;9.858;2024-03-17T06:56:38;118145.84;;;-144.59;100.00
54648;BME280;40543;53.584;9.858;2024-03-17T06:59:03;118145.84;;;-144.59;100.00
54648;BME280;40543;53.584;9.858;2024-03-17T07:01:29;118145.84;;;-144.59;100.00
54648;BME280;40543;53.584;9.858;2024-03-17T07:03:54;118145.84;;;-144.59;100.00
54648;BME280;40543;53.584;9.858;2024-03-17T07:06:19;118145.84;;;-144.59;100.00
54648;BME280;40543;53.584;9.858;2024-03-17T07:08:45;118145.84;;;-144.59;100.00
54648;BME280;40543;53.584;9.858;2024-03-17T07:11:10;118145.84;;;-144.59;100.00
54648;BME280;40543;53.584;9.858;2024-03-17T07:13:36;118145.84;;;-144.59;100.00
54648;BME280;40543;53.584;9.858;2024-03-17T07:16:04;118145.84;;;-144.59;100.00
54648;BME280;40543;53.584;9.858;2024-03-17T07:18:31;118145.84;;;-144.59;100.00
54648;BME280;40543;53.584;9.858;2024-03-17T07:21:01;118145.84;;;-144.59;100.00
54648;BME280;40543;53.584;9.858;2024-03-17T07:23:31;118145.84;;;-144.59;100.00
54648;BME280;40543;53.584;9.858;2024-03-17T07:26:00;118145.84;;;-144.59;100.00
54648;BME280;40543;53.584;9.858;2024-03-17T07:28:27;118145.84;;;-144.59;100.00
54648;BME280;40543;53.584;9.858;2024-03-17T07:30:54;118145.84;;;-144.59;100.00
54648;BME280;40543;53.584;9.858;2024-03-17T07:33:21;118145.84;;;-144.59;100.00
54648;BME280;40543;53.584;9.858;2024-03-17T07:35:47;116829.53;;;-144.59;100.00
54648;BME280;40543;53.584;9.858;2024-03-17T07:38:13;113414.41;;;-144.59;100.00
54648;BME280;40543;53.584;9.858;2024-03-17T07:40:38;108428.25;;;-144.59;100.00
54648;BME280;40543;53.584;9.858;2024-03-17T07:43:03;101614.94;;;-144.59;100.00
54648;BME280;40543;53.584;9.858;2024-03-17T07:45:29;94028.97;;;-144.59;100.00
54648;BME280;40543;53.584;9.858;2024-03-17T07:47:54;91155.22;;;-144.59;100.00
54648;BME280;40543;53.584;9.858;2024-03-17T07:50:19;83067.56;;;-144.59;100.00
54648;BME280;40543;53.584;9.858;2024-03-17T07:52:45;69931.34;;;-144.59;100.00
54648;BME280;40543;53.584;9.858;2024-03-17T07:55:10;59703.56;;;-144.59;100.00
54648;BME280;40543;53.584;9.858;2024-03-17T07:57:36;57436.97;;;-144.59;100.00
54648;BME280;40543;53.584;9.858;2024-03-17T08:00:01;55885.53;;;-144.59;100.00
54648;BME280;40543;53.584;9.858;2024-03-17T08:02:27;55220.22;;;-144.59;100.00
54648;BME280;40543;53.584;9.858;2024-03-17T08:04:52;54500.44;;;-144.59;100.00
54648;BME280;40543;53.584;9.858;2024-03-17T08:07:17;54375.13;;;-144.59;100.00
54648;BME280;40543;53.584;9.858;2024-03-17T08:09:43;54318.50;;;-144.59;100.00
54648;BME280;40543;53.584;9.858;2024-03-17T08:12:08;54227.53;;;-144.59;100.00
54648;BME280;40543;53.584;9.858;2024-03-17T08:14:33;54132.53;;;-144.59;100.00
54648;BME280;40543;53.584;9.858;2024-03-17T08:16:59;54029.44;;;-144.59;98.71
54648;BME280;40543;53.584;9.858;2024-03-17T08:19:24;53936.44;;;-144.59;94.10
54648;BME280;40543;53.584;9.858;2024-03-17T08:21:49;53938.47;;;-144.59;93.15
54648;BME280;40543;53.584;9.858;2024-03-17T08:24:14;53920.28;;;-144.59;94.31
54648;BME280;40543;53.584;9.858;2024-03-17T08:26:40;53889.97;;;-144.59;91.61
54648;BME280;40543;53.584;9.858;2024-03-17T08:29:10;53792.94;;;-144.59;85.66
54648;BME280;40543;53.584;9.858;2024-03-17T08:31:36;53811.13;;;-144.59;84.83
54648;BME280;40543;53.584;9.858;2024-03-17T08:34:02;53768.69;;;-144.59;81.36
54648;BME280;40543;53.584;9.858;2024-03-17T08:36:27;53708.03;;;-144.59;78.58
54648;BME280;40543;53.584;9.858;2024-03-17T08:38:53;53691.88;;;-144.59;74.54
54648;BME280;40543;53.584;9.858;2024-03-17T08:41:20;53677.72;;;-144.59;74.28
54648;BME280;40543;53.584;9.858;2024-03-17T08:43:45;53655.50;;;-144.59;68.08
54648;BME280;40543;53.584;9.858;2024-03-17T08:46:11;53665.59;;;-144.59;67.56
54648;BME280;40543;53.584;9.858;2024-03-17T08:48:39;53619.13;;;-144.59;66.35
54648;BME280;40543;53.584;9.858;2024-03-17T08:51:06;53580.72;;;-144.59;62.43
54648;BME280;40543;53.584;9.858;2024-03-17T08:53:32;53572.63;;;-144.59;62.50
54648;BME280;40543;53.584;9.858;2024-03-17T08:55:59;53584.75;;;-144.59;60.09
54648;BME280;40543;53.584;9.858;2024-03-17T08:58:25;53598.91;;;-144.59;57.90
54648;BME280;40543;53.584;9.858;2024-03-17T09:00:51;53637.31;;;-144.59;58.56
54648;BME280;40543;53.584;9.858;2024-03-17T09:03:17;53728.25;;;-144.59;60.54
54648;BME280;40543;53.584;9.858;2024-03-17T09:05:44;53691.88;;;-144.59;61.29
54648;BME280;40543;53.584;9.858;2024-03-17T09:08:18;53673.69;;;-144.59;57.78
54648;BME280;40543;53.584;9.858;2024-03-17T09:10:46;53629.22;;;-144.59;59.28
54648;BME280;40543;53.584;9.858;2024-03-17T09:13:19;53602.94;;;-144.59;56.58
54648;BME280;40543;53.584;9.858;2024-03-17T09:15:57;53582.72;;;-144.59;54.41
54648;BME280;40543;53.584;9.858;2024-03-17T09:18:25;53586.78;;;-144.59;52.07
54648;BME280;40543;53.584;9.858;2024-03-17T09:21:02;53572.63;;;-144.59;54.19
54648;BME280;40543;53.584;9.858;2024-03-17T09:23:28;53615.06;;;-144.59;53.98
54648;BME280;40543;53.584;9.858;2024-03-17T09:26:01;53586.78;;;-144.59;52.64
54648;BME280;40543;53.584;9.858;2024-03-17T09:28:28;53598.91;;;-144.59;50.65
54648;BME280;40543;53.584;9.858;2024-03-17T09:30:54;53574.66;;;-144.59;48.57
54648;BME280;40543;53.584;9.858;2024-03-17T09:33:23;53548.38;;;-144.59;47.63
54648;BME280;40543;53.584;9.858;2024-03-17T09:36:08;53588.78;;;-144.59;47.81
54648;BME280;40543;53.584;9.858;2024-03-17T09:38:36;53606.97;;;-144.59;49.04
54648;BME280;40543;53.584;9.858;2024-03-17T09:41:02;53635.28;;;-144.59;50.50
54648;BME280;40543;53.584;9.858;2024-03-17T09:43:32;53556.47;;;-144.59;50.82
54648;BME280;40543;53.584;9.858;2024-03-17T09:46:02;53580.72;;;-144.59;47.56
54648;BME280;40543;53.584;9.858;2024-03-17T09:48:28;53596.88;;;-144.59;45.36
54648;BME280;40543;53.584;9.858;2024-03-17T09:50:56;53609.00;;;-144.59;46.57
54648;BME280;40543;53.584;9.858;2024-03-17T09:55:51;53550.38;;;-144.59;45.15
54648;BME280;40543;53.584;9.858;2024-03-17T09:58:19;53564.53;;;-144.59;45.51
54648;BME280;40543;53.584;9.858;2024-03-17T10:00:44;53536.25;;;-144.59;43.40
54648;BME280;40543;53.584;9.858;2024-03-17T10:03:10;53552.41;;;-144.59;42.88
54648;BME280;40543;53.584;9.858;2024-03-17T10:05:35;53479.66;;;-144.59;41.46
54648;BME280;40543;53.584;9.858;2024-03-17T10:08:01;53497.84;;;-144.59;40.96
54648;BME280;40543;53.584;9.858;2024-03-17T10:10:26;53534.22;;;-144.59;38.94
54648;BME280;40543;53.584;9.858;2024-03-17T10:12:52;53493.81;;;-144.59;38.12
54648;BME280;40543;53.584;9.858;2024-03-17T10:15:18;53507.94;;;-144.59;37.88
54648;BME280;40543;53.584;9.858;2024-03-17T10:17:44;53501.88;;;-144.59;38.31
54648;BME280;40543;53.584;9.858;2024-03-17T10:20:17;53497.84;;;-144.59;36.04
54648;BME280;40543;53.584;9.858;2024-03-17T10:23:06;53526.13;;;-144.59;37.57
54648;BME280;40543;53.584;9.858;2024-03-17T10:25:34;53514.00;;;-144.59;36.46
54648;BME280;40543;53.584;9.858;2024-03-17T10:28:10;53507.94;;;-144.59;36.72
54648;BME280;40543;53.584;9.858;2024-03-17T10:30:36;53514.00;;;-144.59;37.15
54648;BME280;40543;53.584;9.858;2024-03-17T10:33:02;53507.94;;;-144.59;38.57
54648;BME280;40543;53.584;9.858;2024-03-17T10:35:34;53509.97;;;-144.59;36.26
54648;BME280;40543;53.584;9.858;2024-03-17T10:38:02;53518.06;;;-144.59;38.25
54648;BME280;40543;53.584;9.858;2024-03-17T10:40:29;53524.13;;;-144.59;38.82
54648;BME280;40543;53.584;9.858;2024-03-17T10:42:55;53512.00;;;-144.59;39.05
54648;BME280;40543;53.584;9.858;2024-03-17T10:45:21;53507.94;;;-144.59;39.22
54648;BME280;40543;53.584;9.858;2024-03-17T10:47:49;53495.81;;;-144.59;40.92
54648;BME280;40543;53.584;9.858;2024-03-17T10:50:22;53516.03;;;-144.59;37.31
54648;BME280;40543;53.584;9.858;2024-03-17T10:52:49;53509.97;;;-144.59;35.79
54648;BME280;40543;53.584;9.858;2024-03-17T10:55:25;53493.81;;;-144.59;36.98
54648;BME280;40543;53.584;9.858;2024-03-17T10:57:53;53501.88;;;-144.59;34.72
54648;BME280;40543;53.584;9.858;2024-03-17T11:00:22;53514.00;;;-144.59;34.72
54648;BME280;40543;53.584;9.858;2024-03-17T11:02:49;53491.78;;;-144.59;36.09
54648;BME280;40543;53.584;9.858;2024-03-17T11:05:21;53530.19;;;-144.59;36.58
54648;BME280;40543;53.584;9.858;2024-03-17T11:07:50;53516.03;;;-144.59;36.39
54648;BME280;40543;53.584;9.858;2024-03-17T11:10:21;53518.06;;;-144.59;36.31
54648;BME280;40543;53.584;9.858;2024-03-17T11:12:55;53526.13;;;-144.59;34.76
54648;BME280;40543;53.584;9.858;2024-03-17T11:17:53;53540.28;;;-144.59;34.95
54648;BME280;40543;53.584;9.858;2024-03-17T11:20:27;53576.66;;;-144.59;38.21
54648;BME280;40543;53.584;9.858;2024-03-17T11:22:58;53532.19;;;-144.59;38.05
54648;BME280;40543;53.584;9.858;2024-03-17T11:27:58;53514.00;;;-144.59;37.83
54648;BME280;40543;53.584;9.858;2024-03-17T11:30:42;53507.94;;;-144.59;36.74
54648;BME280;40543;53.584;9.858;2024-03-17T11:39:00;53546.34;;;-144.59;36.99
54648;BME280;40543;53.584;9.858;2024-03-17T11:44:27;53497.84;;;-144.59;36.56
54648;BME280;40543;53.584;9.858;2024-03-17T11:46:59;53483.69;;;-144.59;33.67
54648;BME280;40543;53.584;9.858;2024-03-17T11:49:27;53489.75;;;-144.59;33.58
54648;BME280;40543;53.584;9.858;2024-03-17T11:51:55;53465.50;;;-144.59;32.57
54648;BME280;40543;53.584;9.858;2024-03-17T11:54:23;53455.41;;;-144.59;33.92
54648;BME280;40543;53.584;9.858;2024-03-17T11:56:51;53433.16;;;-144.59;32.97
54648;BME280;40543;53.584;9.858;2024-03-17T11:59:17;53443.28;;;-144.59;31.23
54648;BME280;40543;53.584;9.858;2024-03-17T12:01:45;53459.44;;;-144.59;30.84
54648;BME280;40543;53.584;9.858;2024-03-17T12:04:11;53445.28;;;-144.59;31.38
54648;BME280;40543;53.584;9.858;2024-03-17T12:06:37;53489.75;;;-144.59;31.74
54648;BME280;40543;53.584;9.858;2024-03-17T12:09:13;53473.59;;;-144.59;30.45
54648;BME280;40543;53.584;9.858;2024-03-17T12:11:42;53443.28;;;-144.59;32.01
54648;BME280;40543;53.584;9.858;2024-03-17T12:14:20;53483.69;;;-144.59;31.23
54648;BME280;40543;53.584;9.858;2024-03-17T12:16:49;53485.72;;;-144.59;31.28
54648;BME280;40543;53.584;9.858;2024-03-17T12:19:15;53433.16;;;-144.59;30.73
54648;BME280;40543;53.584;9.858;2024-03-17T12:21:45;53455.41;;;-144.59;31.49
54648;BME280;40543;53.584;9.858;2024-03-17T12:24:18;53461.47;;;-144.59;31.38
54648;BME280;40543;53.584;9.858;2024-03-17T12:26:45;53457.41;;;-144.59;30.85
54648;BME280;40543;53.584;9.858;2024-03-17T12:29:23;53471.56;;;-144.59;28.13
54648;BME280;40543;53.584;9.858;2024-03-17T12:31:50;53489.75;;;-144.59;29.08
54648;BME280;40543;53.584;9.858;2024-03-17T12:34:17;53455.41;;;-144.59;30.28
54648;BME280;40543;53.584;9.858;2024-03-17T12:36:43;53522.09;;;-144.59;28.73
54648;BME280;40543;53.584;9.858;2024-03-17T12:39:11;53445.28;;;-144.59;27.73
54648;BME280;40543;53.584;9.858;2024-03-17T12:41:36;53461.47;;;-144.59;28.65
54648;BME280;40543;53.584;9.858;2024-03-17T12:44:02;53477.63;;;-144.59;27.90
54648;BME280;40543;53.584;9.858;2024-03-17T12:46:28;53503.91;;;-144.59;27.33
54648;BME280;40543;53.584;9.858;2024-03-17T12:49:00;53485.72;;;-144.59;26.77